sensor_id;sensor_type;location;lat;lon;timestamp;temperature;humidity
11615;DHT22;5863;52.832;4.758;2023-01-31T00:00:28;6.50;99.90
11615;DHT22;5863;52.832;4.758;2023-01-31T00:02:55;6.50;99.90
11615;DHT22;5863;52.832;4.758;2023-01-31T00:05:25;6.50;99.90
11615;DHT22;5863;52.832;4.758;2023-01-31T00:07:51;6.50;99.90
11615;DHT22;5863;52.832;4.758;2023-01-31T00:10:18;6.50;99.90
11615;DHT22;5863;52.832;4.758;2023-01-31T00:12:45;6.50;99.90
11615;DHT22;5863;52.832;4.758;2023-01-31T00:15:12;6.60;99.90
11615;DHT22;5863;52.832;4.758;2023-01-31T00:17:40;6.60;99.90
11615;DHT22;5863;52.832;4.758;2023-01-31T00:20:09;6.60;99.90
11615;DHT22;5863;52.832;4.758;2023-01-31T00:22:37;6.60;99.90
11615;DHT22;5863;52.832;4.758;2023-01-31T00:25:05;6.60;99.90
11615;DHT22;5863;52.832;4.758;2023-01-31T00:27:31;6.60;99.90
11615;DHT22;5863;52.832;4.758;2023-01-31T00:29:58;6.60;99.90
11615;DHT22;5863;52.832;4.758;2023-01-31T00:32:25;6.60;99.90
11615;DHT22;5863;52.832;4.758;2023-01-31T00:34:52;6.60;99.90
11615;DHT22;5863;52.832;4.758;2023-01-31T00:37:19;6.70;99.90
11615;DHT22;5863;52.832;4.758;2023-01-31T00:39:47;6.70;99.90
11615;DHT22;5863;52.832;4.758;2023-01-31T00:42:14;6.70;99.90
11615;DHT22;5863;52.832;4.758;2023-01-31T00:44:40;6.70;99.90
11615;DHT22;5863;52.832;4.758;2023-01-31T00:47:07;6.70;99.90
11615;DHT22;5863;52.832;4.758;2023-01-31T00:49:34;6.70;99.90
11615;DHT22;5863;52.832;4.758;2023-01-31T00:52:00;6.70;99.90
11615;DHT22;5863;52.832;4.758;2023-01-31T00:54:27;6.70;99.90
11615;DHT22;5863;52.832;4.758;2023-01-31T00:56:55;6.70;99.90
11615;DHT22;5863;52.832;4.758;2023-01-31T00:59:23;6.70;99.90
11615;DHT22;5863;52.832;4.758;2023-01-31T01:01:49;6.70;99.90
11615;DHT22;5863;52.832;4.758;2023-01-31T01:04:16;6.70;99.90
11615;DHT22;5863;52.832;4.758;2023-01-31T01:06:42;6.70;99.90
11615;DHT22;5863;52.832;4.758;2023-01-31T01:09:09;6.70;99.90
11615;DHT22;5863;52.832;4.758;2023-01-31T01:11:36;6.70;99.90
11615;DHT22;5863;52.832;4.758;2023-01-31T01:14:04;6.70;99.90
11615;DHT22;5863;52.832;4.758;2023-01-31T01:16:33;6.70;99.90
11615;DHT22;5863;52.832;4.758;2023-01-31T01:19:00;6.80;99.90
11615;DHT22;5863;52.832;4.758;2023-01-31T01:21:29;6.80;99.90
11615;DHT22;5863;52.832;4.758;2023-01-31T01:23:58;6.80;99.90
11615;DHT22;5863;52.832;4.758;2023-01-31T01:26:27;6.90;99.90
11615;DHT22;5863;52.832;4.758;2023-01-31T01:28:56;6.90;99.90
11615;DHT22;5863;52.832;4.758;2023-01-31T01:31:25;6.90;99.90
11615;DHT22;5863;52.832;4.758;2023-01-31T01:33:55;6.90;99.90
11615;DHT22;5863;52.832;4.758;2023-01-31T01:36:22;7.00;99.90
11615;DHT22;5863;52.832;4.758;2023-01-31T01:38:50;7.00;99.90
11615;DHT22;5863;52.832;4.758;2023-01-31T01:41:17;7.00;99.90
11615;DHT22;5863;52.832;4.758;2023-01-31T01:43:47;7.10;99.90
11615;DHT22;5863;52.832;4.758;2023-01-31T01:46:17;7.20;99.90
11615;DHT22;5863;52.832;4.758;2023-01-31T01:48:50;7.30;99.90
11615;DHT22;5863;52.832;4.758;2023-01-31T01:51:19;7.30;99.90
11615;DHT22;5863;52.832;4.758;2023-01-31T01:53:49;7.30;99.90
11615;DHT22;5863;52.832;4.758;2023-01-31T01:56:18;7.30;99.90
11615;DHT22;5863;52.832;4.758;2023-01-31T01:58:51;7.30;99.90
11615;DHT22;5863;52.832;4.758;2023-01-31T02:01:20;7.40;99.90
11615;DHT22;5863;52.832;4.758;2023-01-31T02:03:48;7.40;99.90
11615;DHT22;5863;52.832;4.758;2023-01-31T02:06:16;7.40;99.90
11615;DHT22;5863;52.832;4.758;2023-01-31T02:08:43;7.40;99.90
11615;DHT22;5863;52.832;4.758;2023-01-31T02:11:14;7.40;99.90
11615;DHT22;5863;52.832;4.758;2023-01-31T02:13:45;7.40;99.90
11615;DHT22;5863;52.832;4.758;2023-01-31T02:16:12;7.40;99.90
11615;DHT22;5863;52.832;4.758;2023-01-31T02:18:38;7.40;99.90
11615;DHT22;5863;52.832;4.758;2023-01-31T02:27:46;7.50;99.90
11615;DHT22;5863;52.832;4.758;2023-01-31T02:33:25;7.60;99.90
11615;DHT22;5863;52.832;4.758;2023-01-31T02:36:03;7.60;99.90
11615;DHT22;5863;52.832;4.758;2023-01-31T02:38:41;7.60;99.90
11615;DHT22;5863;52.832;4.758;2023-01-31T02:41:16;7.60;99.90
11615;DHT22;5863;52.832;4.758;2023-01-31T02:43:50;7.60;99.90
11615;DHT22;5863;52.832;4.758;2023-01-31T02:46:42;7.70;99.90
11615;DHT22;5863;52.832;4.758;2023-01-31T02:49:16;7.60;99.90
11615;DHT22;5863;52.832;4.758;2023-01-31T02:52:02;7.70;99.90
11615;DHT22;5863;52.832;4.758;2023-01-31T02:54:55;7.70;99.90
11615;DHT22;5863;52.832;4.758;2023-01-31T02:57:43;7.70;99.90
11615;DHT22;5863;52.832;4.758;2023-01-31T03:00:12;7.70;99.90
11615;DHT22;5863;52.832;4.758;2023-01-31T03:02:39;7.70;99.90
11615;DHT22;5863;52.832;4.758;2023-01-31T03:05:12;7.60;99.90
11615;DHT22;5863;52.832;4.758;2023-01-31T03:07:41;7.60;99.90
11615;DHT22;5863;52.832;4.758;2023-01-31T03:10:18;7.60;99.90
11615;DHT22;5863;52.832;4.758;2023-01-31T03:13:05;7.60;99.90
11615;DHT22;5863;52.832;4.758;2023-01-31T03:15:41;7.60;99.90
11615;DHT22;5863;52.832;4.758;2023-01-31T03:18:30;7.60;99.90
11615;DHT22;5863;52.832;4.758;2023-01-31T03:21:04;7.70;99.90
11615;DHT22;5863;52.832;4.758;2023-01-31T03:23:33;7.70;99.90
11615;DHT22;5863;52.832;4.758;2023-01-31T03:26:04;7.70;99.90
11615;DHT22;5863;52.832;4.758;2023-01-31T03:28:33;7.70;99.90
11615;DHT22;5863;52.832;4.758;2023-01-31T03:31:04;7.70;99.90
11615;DHT22;5863;52.832;4.758;2023-01-31T03:33:35;7.70;99.90
11615;DHT22;5863;52.832;4.758;2023-01-31T03:36:10;7.70;99.90
11615;DHT22;5863;52.832;4.758;2023-01-31T03:38:46;7.70;99.90
11615;DHT22;5863;52.832;4.758;2023-01-31T03:41:21;7.70;99.90
11615;DHT22;5863;52.832;4.758;2023-01-31T03:43:55;7.70;99.90
11615;DHT22;5863;52.832;4.758;2023-01-31T03:46:26;7.70;99.90
11615;DHT22;5863;52.832;4.758;2023-01-31T03:48:55;7.70;99.90
11615;DHT22;5863;52.832;4.758;2023-01-31T03:51:27;7.70;99.90
11615;DHT22;5863;52.832;4.758;2023-01-31T03:53:57;7.80;99.90
11615;DHT22;5863;52.832;4.758;2023-01-31T03:56:29;7.70;99.90
11615;DHT22;5863;52.832;4.758;2023-01-31T03:58:59;7.80;99.90
11615;DHT22;5863;52.832;4.758;2023-01-31T04:01:30;7.80;99.90
11615;DHT22;5863;52.832;4.758;2023-01-31T04:04:02;7.80;99.90
11615;DHT22;5863;52.832;4.758;2023-01-31T04:06:32;7.80;99.90
11615;DHT22;5863;52.832;4.758;2023-01-31T04:08:59;7.70;99.90
11615;DHT22;5863;52.832;4.758;2023-01-31T04:11:26;7.80;99.90
11615;DHT22;5863;52.832;4.758;2023-01-31T04:13:56;7.80;99.90
11615;DHT22;5863;52.832;4.758;2023-01-31T04:16:23;7.80;99.90
11615;DHT22;5863;52.832;4.758;2023-01-31T04:18:49;7.80;99.90
11615;DHT22;5863;52.832;4.758;2023-01-31T04:21:16;7.80;99.90
11615;DHT22;5863;52.832;4.758;2023-01-31T04:23:44;7.80;99.90
11615;DHT22;5863;52.832;4.758;2023-01-31T04:26:11;7.80;99.90
11615;DHT22;5863;52.832;4.758;2023-01-31T04:28:37;7.80;99.90
11615;DHT22;5863;52.832;4.758;2023-01-31T04:31:04;7.80;99.90
11615;DHT22;5863;52.832;4.758;2023-01-31T04:33:31;7.70;99.90
11615;DHT22;5863;52.832;4.758;2023-01-31T04:35:58;7.80;99.90
11615;DHT22;5863;52.832;4.758;2023-01-31T04:38:24;7.80;99.90
11615;DHT22;5863;52.832;4.758;2023-01-31T04:40:52;7.80;99.90
11615;DHT22;5863;52.832;4.758;2023-01-31T04:43:19;7.80;99.90
11615;DHT22;5863;52.832;4.758;2023-01-31T04:45:46;7.80;99.90
11615;DHT22;5863;52.832;4.758;2023-01-31T04:48:12;7.80;99.90
11615;DHT22;5863;52.832;4.758;2023-01-31T04:50:39;7.80;99.90
11615;DHT22;5863;52.832;4.758;2023-01-31T04:53:06;7.90;99.90
11615;DHT22;5863;52.832;4.758;2023-01-31T04:55:33;7.90;99.90
11615;DHT22;5863;52.832;4.758;2023-01-31T04:58:01;7.90;99.90
11615;DHT22;5863;52.832;4.758;2023-01-31T05:00:28;7.90;99.90
11615;DHT22;5863;52.832;4.758;2023-01-31T05:02:54;7.90;99.90
11615;DHT22;5863;52.832;4.758;2023-01-31T05:05:21;7.90;99.90
11615;DHT22;5863;52.832;4.758;2023-01-31T05:07:48;7.90;99.90
11615;DHT22;5863;52.832;4.758;2023-01-31T05:10:15;7.90;99.90
11615;DHT22;5863;52.832;4.758;2023-01-31T05:12:43;7.90;99.90
11615;DHT22;5863;52.832;4.758;2023-01-31T05:15:12;7.90;99.90
11615;DHT22;5863;52.832;4.758;2023-01-31T05:17:38;7.90;99.90
11615;DHT22;5863;52.832;4.758;2023-01-31T05:20:06;7.90;99.90
11615;DHT22;5863;52.832;4.758;2023-01-31T05:22:33;8.00;99.90
11615;DHT22;5863;52.832;4.758;2023-01-31T05:24:59;8.00;99.90
11615;DHT22;5863;52.832;4.758;2023-01-31T05:27:26;8.00;99.90
11615;DHT22;5863;52.832;4.758;2023-01-31T05:29:53;8.00;99.90
11615;DHT22;5863;52.832;4.758;2023-01-31T05:32:21;8.00;99.90
11615;DHT22;5863;52.832;4.758;2023-01-31T05:34:48;8.10;99.90
11615;DHT22;5863;52.832;4.758;2023-01-31T05:37:14;8.00;99.90
11615;DHT22;5863;52.832;4.758;2023-01-31T05:39:41;8.20;99.90
11615;DHT22;5863;52.832;4.758;2023-01-31T05:42:08;8.10;99.90
11615;DHT22;5863;52.832;4.758;2023-01-31T05:44:34;8.10;99.90
11615;DHT22;5863;52.832;4.758;2023-01-31T05:47:01;8.10;99.90
11615;DHT22;5863;52.832;4.758;2023-01-31T05:49:29;8.10;99.90
11615;DHT22;5863;52.832;4.758;2023-01-31T05:51:58;8.10;99.90
11615;DHT22;5863;52.832;4.758;2023-01-31T05:54:24;8.20;99.90
11615;DHT22;5863;52.832;4.758;2023-01-31T05:56:51;8.10;99.90
11615;DHT22;5863;52.832;4.758;2023-01-31T05:59:19;8.10;99.90
11615;DHT22;5863;52.832;4.758;2023-01-31T06:01:45;8.10;99.90
11615;DHT22;5863;52.832;4.758;2023-01-31T06:04:12;8.00;99.90
11615;DHT22;5863;52.832;4.758;2023-01-31T06:06:40;8.00;99.90
11615;DHT22;5863;52.832;4.758;2023-01-31T06:09:07;8.00;99.90
11615;DHT22;5863;52.832;4.758;2023-01-31T06:11:33;8.00;99.90
11615;DHT22;5863;52.832;4.758;2023-01-31T06:14:00;8.00;99.90
11615;DHT22;5863;52.832;4.758;2023-01-31T06:16:27;8.00;99.90
11615;DHT22;5863;52.832;4.758;2023-01-31T06:18:53;8.00;99.90
11615;DHT22;5863;52.832;4.758;2023-01-31T06:21:21;7.90;99.90
11615;DHT22;5863;52.832;4.758;2023-01-31T06:23:49;7.90;99.90
11615;DHT22;5863;52.832;4.758;2023-01-31T06:26:16;8.00;99.90
11615;DHT22;5863;52.832;4.758;2023-01-31T06:28:43;7.90;99.90
11615;DHT22;5863;52.832;4.758;2023-01-31T06:31:15;8.00;99.90
11615;DHT22;5863;52.832;4.758;2023-01-31T06:33:42;7.90;99.90
11615;DHT22;5863;52.832;4.758;2023-01-31T06:36:09;7.90;99.90
11615;DHT22;5863;52.832;4.758;2023-01-31T06:38:43;7.90;99.90
11615;DHT22;5863;52.832;4.758;2023-01-31T06:41:11;7.90;99.90
11615;DHT22;5863;52.832;4.758;2023-01-31T06:43:38;7.90;99.90
11615;DHT22;5863;52.832;4.758;2023-01-31T06:46:09;7.90;99.90
11615;DHT22;5863;52.832;4.758;2023-01-31T06:48:36;7.90;99.90
11615;DHT22;5863;52.832;4.758;2023-01-31T06:51:03;7.90;99.90
11615;DHT22;5863;52.832;4.758;2023-01-31T06:53:30;7.90;99.90
11615;DHT22;5863;52.832;4.758;2023-01-31T06:55:57;7.90;99.90
11615;DHT22;5863;52.832;4.758;2023-01-31T06:58:25;7.90;99.90
11615;DHT22;5863;52.832;4.758;2023-01-31T07:00:52;7.90;99.90
11615;DHT22;5863;52.832;4.758;2023-01-31T07:03:19;7.90;99.90
11615;DHT22;5863;52.832;4.758;2023-01-31T07:05:45;7.90;99.90
11615;DHT22;5863;52.832;4.758;2023-01-31T07:08:13;7.80;99.90
11615;DHT22;5863;52.832;4.758;2023-01-31T07:10:40;7.80;99.90
11615;DHT22;5863;52.832;4.758;2023-01-31T07:13:06;7.80;99.90
11615;DHT22;5863;52.832;4.758;2023-01-31T07:15:34;7.70;99.90
11615;DHT22;5863;52.832;4.758;2023-01-31T07:18:01;7.70;99.90
11615;DHT22;5863;52.832;4.758;2023-01-31T07:20:28;7.70;99.90
11615;DHT22;5863;52.832;4.758;2023-01-31T07:22:55;7.70;99.90
11615;DHT22;5863;52.832;4.758;2023-01-31T07:25:22;7.70;99.90
11615;DHT22;5863;52.832;4.758;2023-01-31T07:27:48;7.70;99.90
11615;DHT22;5863;52.832;4.758;2023-01-31T07:30:15;7.70;99.90
11615;DHT22;5863;52.832;4.758;2023-01-31T07:32:43;7.70;99.90
11615;DHT22;5863;52.832;4.758;2023-01-31T07:35:10;7.70;99.90
11615;DHT22;5863;52.832;4.758;2023-01-31T07:37:37;7.70;99.90
11615;DHT22;5863;52.832;4.758;2023-01-31T07:40:06;7.80;99.90
11615;DHT22;5863;52.832;4.758;2023-01-31T07:42:33;7.80;99.90
11615;DHT22;5863;52.832;4.758;2023-01-31T07:44:59;7.80;99.90
11615;DHT22;5863;52.832;4.758;2023-01-31T07:47:26;7.80;99.90
11615;DHT22;5863;52.832;4.758;2023-01-31T07:49:54;7.90;99.90
11615;DHT22;5863;52.832;4.758;2023-01-31T07:52:21;7.90;99.90
11615;DHT22;5863;52.832;4.758;2023-01-31T07:54:47;7.90;99.90
11615;DHT22;5863;52.832;4.758;2023-01-31T07:57:16;7.90;99.90
11615;DHT22;5863;52.832;4.758;2023-01-31T07:59:43;7.90;99.90
11615;DHT22;5863;52.832;4.758;2023-01-31T08:02:11;7.90;99.90
11615;DHT22;5863;52.832;4.758;2023-01-31T08:04:57;8.00;99.90
11615;DHT22;5863;52.832;4.758;2023-01-31T08:07:24;8.00;99.90
11615;DHT22;5863;52.832;4.758;2023-01-31T08:09:50;8.10;99.90
11615;DHT22;5863;52.832;4.758;2023-01-31T08:12:17;8.10;99.90
11615;DHT22;5863;52.832;4.758;2023-01-31T08:14:44;8.10;99.90
11615;DHT22;5863;52.832;4.758;2023-01-31T08:17:34;8.10;99.90
11615;DHT22;5863;52.832;4.758;2023-01-31T08:20:02;8.20;99.90
11615;DHT22;5863;52.832;4.758;2023-01-31T08:22:29;8.20;99.90
11615;DHT22;5863;52.832;4.758;2023-01-31T08:24:56;8.20;99.90
11615;DHT22;5863;52.832;4.758;2023-01-31T08:27:22;8.20;99.90
11615;DHT22;5863;52.832;4.758;2023-01-31T08:29:49;8.20;99.90
11615;DHT22;5863;52.832;4.758;2023-01-31T08:32:16;8.20;99.90
11615;DHT22;5863;52.832;4.758;2023-01-31T08:34:43;8.30;99.90
11615;DHT22;5863;52.832;4.758;2023-01-31T08:37:11;8.30;99.90
11615;DHT22;5863;52.832;4.758;2023-01-31T08:39:38;8.30;99.90
11615;DHT22;5863;52.832;4.758;2023-01-31T08:42:09;8.30;99.90
11615;DHT22;5863;52.832;4.758;2023-01-31T08:44:36;8.40;99.90
11615;DHT22;5863;52.832;4.758;2023-01-31T08:47:03;8.40;99.90
11615;DHT22;5863;52.832;4.758;2023-01-31T08:49:30;8.50;99.90
11615;DHT22;5863;52.832;4.758;2023-01-31T08:52:11;8.60;99.90
11615;DHT22;5863;52.832;4.758;2023-01-31T08:54:40;8.60;99.90
11615;DHT22;5863;52.832;4.758;2023-01-31T08:57:06;8.70;99.90
11615;DHT22;5863;52.832;4.758;2023-01-31T08:59:33;8.70;99.90
11615;DHT22;5863;52.832;4.758;2023-01-31T09:05:08;8.80;99.90
11615;DHT22;5863;52.832;4.758;2023-01-31T09:07:36;8.80;99.90
11615;DHT22;5863;52.832;4.758;2023-01-31T09:10:03;8.90;99.90
11615;DHT22;5863;52.832;4.758;2023-01-31T09:12:33;8.80;99.90
11615;DHT22;5863;52.832;4.758;2023-01-31T09:15:00;8.90;99.90
11615;DHT22;5863;52.832;4.758;2023-01-31T09:17:26;8.90;99.90
11615;DHT22;5863;52.832;4.758;2023-01-31T09:19:53;8.90;99.90
11615;DHT22;5863;52.832;4.758;2023-01-31T09:22:20;8.90;99.90
11615;DHT22;5863;52.832;4.758;2023-01-31T09:28:24;8.90;99.90
11615;DHT22;5863;52.832;4.758;2023-01-31T09:30:51;8.90;99.90
11615;DHT22;5863;52.832;4.758;2023-01-31T09:33:19;8.90;99.90
11615;DHT22;5863;52.832;4.758;2023-01-31T09:35:54;8.90;99.90
11615;DHT22;5863;52.832;4.758;2023-01-31T09:38:21;8.90;99.90
11615;DHT22;5863;52.832;4.758;2023-01-31T09:40:48;8.90;99.90
11615;DHT22;5863;52.832;4.758;2023-01-31T09:43:16;9.00;99.90
11615;DHT22;5863;52.832;4.758;2023-01-31T09:45:46;9.00;99.90
11615;DHT22;5863;52.832;4.758;2023-01-31T09:48:18;9.00;99.90
11615;DHT22;5863;52.832;4.758;2023-01-31T09:50:48;9.00;99.90
11615;DHT22;5863;52.832;4.758;2023-01-31T09:53:18;9.10;99.90
11615;DHT22;5863;52.832;4.758;2023-01-31T09:55:53;9.10;99.90
11615;DHT22;5863;52.832;4.758;2023-01-31T09:58:26;9.20;99.90
11615;DHT22;5863;52.832;4.758;2023-01-31T10:01:05;9.20;99.90
11615;DHT22;5863;52.832;4.758;2023-01-31T10:03:55;9.10;99.90
11615;DHT22;5863;52.832;4.758;2023-01-31T10:06:27;9.10;99.90
11615;DHT22;5863;52.832;4.758;2023-01-31T10:09:00;9.10;99.90
11615;DHT22;5863;52.832;4.758;2023-01-31T10:11:33;9.10;99.90
11615;DHT22;5863;52.832;4.758;2023-01-31T10:14:06;9.10;99.90
11615;DHT22;5863;52.832;4.758;2023-01-31T10:16:42;9.10;99.90
11615;DHT22;5863;52.832;4.758;2023-01-31T10:19:14;9.10;99.90
11615;DHT22;5863;52.832;4.758;2023-01-31T10:21:46;9.10;99.90
11615;DHT22;5863;52.832;4.758;2023-01-31T10:24:17;9.10;99.90
11615;DHT22;5863;52.832;4.758;2023-01-31T10:26:50;9.10;99.90
11615;DHT22;5863;52.832;4.758;2023-01-31T10:29:22;9.20;99.90
11615;DHT22;5863;52.832;4.758;2023-01-31T10:31:55;9.20;99.90
11615;DHT22;5863;52.832;4.758;2023-01-31T10:34:26;9.20;99.90
11615;DHT22;5863;52.832;4.758;2023-01-31T10:36:59;9.30;99.90
11615;DHT22;5863;52.832;4.758;2023-01-31T10:39:31;9.30;99.90
11615;DHT22;5863;52.832;4.758;2023-01-31T10:42:08;9.40;99.90
11615;DHT22;5863;52.832;4.758;2023-01-31T10:44:42;9.50;99.90
11615;DHT22;5863;52.832;4.758;2023-01-31T10:47:13;9.50;99.90
11615;DHT22;5863;52.832;4.758;2023-01-31T10:49:44;9.60;99.90
11615;DHT22;5863;52.832;4.758;2023-01-31T10:52:27;9.70;99.90
11615;DHT22;5863;52.832;4.758;2023-01-31T10:55:13;9.80;99.90
11615;DHT22;5863;52.832;4.758;2023-01-31T10:57:42;9.90;99.90
11615;DHT22;5863;52.832;4.758;2023-01-31T11:00:13;10.00;99.90
11615;DHT22;5863;52.832;4.758;2023-01-31T11:02:45;10.10;99.90
11615;DHT22;5863;52.832;4.758;2023-01-31T11:05:14;10.10;99.90
11615;DHT22;5863;52.832;4.758;2023-01-31T11:07:42;10.20;99.90
11615;DHT22;5863;52.832;4.758;2023-01-31T11:10:21;10.20;99.90
11615;DHT22;5863;52.832;4.758;2023-01-31T11:12:52;10.30;99.90
11615;DHT22;5863;52.832;4.758;2023-01-31T11:15:23;10.30;99.90
11615;DHT22;5863;52.832;4.758;2023-01-31T11:17:52;10.40;99.90
11615;DHT22;5863;52.832;4.758;2023-01-31T11:20:24;10.50;99.90
11615;DHT22;5863;52.832;4.758;2023-01-31T11:22:53;10.50;99.90
11615;DHT22;5863;52.832;4.758;2023-01-31T11:25:23;10.60;99.90
11615;DHT22;5863;52.832;4.758;2023-01-31T11:27:52;10.70;99.90
11615;DHT22;5863;52.832;4.758;2023-01-31T11:30:22;10.70;99.90
11615;DHT22;5863;52.832;4.758;2023-01-31T11:32:52;10.70;99.90
11615;DHT22;5863;52.832;4.758;2023-01-31T11:35:27;10.80;99.90
11615;DHT22;5863;52.832;4.758;2023-01-31T11:37:55;10.90;99.90
11615;DHT22;5863;52.832;4.758;2023-01-31T11:40:27;10.90;99.90
11615;DHT22;5863;52.832;4.758;2023-01-31T11:42:56;10.90;99.90
11615;DHT22;5863;52.832;4.758;2023-01-31T11:45:24;11.00;99.90
11615;DHT22;5863;52.832;4.758;2023-01-31T11:48:04;11.10;99.90
11615;DHT22;5863;52.832;4.758;2023-01-31T11:50:34;11.10;99.90
11615;DHT22;5863;52.832;4.758;2023-01-31T11:53:03;11.10;99.90
11615;DHT22;5863;52.832;4.758;2023-01-31T11:55:35;11.10;99.90
11615;DHT22;5863;52.832;4.758;2023-01-31T11:58:05;11.10;99.90
11615;DHT22;5863;52.832;4.758;2023-01-31T12:00:34;11.10;99.90
11615;DHT22;5863;52.832;4.758;2023-01-31T12:03:04;11.20;99.90
11615;DHT22;5863;52.832;4.758;2023-01-31T12:05:36;11.20;99.90
11615;DHT22;5863;52.832;4.758;2023-01-31T12:08:04;11.20;99.90
11615;DHT22;5863;52.832;4.758;2023-01-31T12:10:35;11.20;99.90
11615;DHT22;5863;52.832;4.758;2023-01-31T12:13:13;11.20;99.90
11615;DHT22;5863;52.832;4.758;2023-01-31T12:15:47;11.20;99.90
11615;DHT22;5863;52.832;4.758;2023-01-31T12:18:24;11.30;99.90
11615;DHT22;5863;52.832;4.758;2023-01-31T12:21:00;11.30;99.90
11615;DHT22;5863;52.832;4.758;2023-01-31T12:23:36;11.30;99.90
11615;DHT22;5863;52.832;4.758;2023-01-31T12:26:11;11.20;99.90
11615;DHT22;5863;52.832;4.758;2023-01-31T12:28:51;11.10;99.90
11615;DHT22;5863;52.832;4.758;2023-01-31T12:31:36;11.00;99.90
11615;DHT22;5863;52.832;4.758;2023-01-31T12:34:19;10.90;99.90
11615;DHT22;5863;52.832;4.758;2023-01-31T12:37:07;10.80;99.90
11615;DHT22;5863;52.832;4.758;2023-01-31T12:39:55;10.80;99.90
11615;DHT22;5863;52.832;4.758;2023-01-31T12:42:42;10.90;99.90
11615;DHT22;5863;52.832;4.758;2023-01-31T12:51:12;10.90;99.90
11615;DHT22;5863;52.832;4.758;2023-01-31T12:53:53;11.00;99.90
11615;DHT22;5863;52.832;4.758;2023-01-31T12:56:34;11.00;99.90
11615;DHT22;5863;52.832;4.758;2023-01-31T12:59:08;11.00;99.90
11615;DHT22;5863;52.832;4.758;2023-01-31T13:01:45;11.10;99.90
11615;DHT22;5863;52.832;4.758;2023-01-31T13:04:35;11.10;99.90
11615;DHT22;5863;52.832;4.758;2023-01-31T13:07:10;11.10;99.90
11615;DHT22;5863;52.832;4.758;2023-01-31T13:09:37;11.10;99.90
11615;DHT22;5863;52.832;4.758;2023-01-31T13:12:14;11.10;99.90
11615;DHT22;5863;52.832;4.758;2023-01-31T13:14:48;11.10;99.90
11615;DHT22;5863;52.832;4.758;2023-01-31T13:17:17;11.10;99.90
11615;DHT22;5863;52.832;4.758;2023-01-31T13:19:48;11.20;99.90
11615;DHT22;5863;52.832;4.758;2023-01-31T13:22:19;11.20;99.90
11615;DHT22;5863;52.832;4.758;2023-01-31T13:24:50;11.20;99.90
11615;DHT22;5863;52.832;4.758;2023-01-31T13:27:23;11.20;99.90
11615;DHT22;5863;52.832;4.758;2023-01-31T13:29:56;11.20;99.90
11615;DHT22;5863;52.832;4.758;2023-01-31T13:32:28;11.20;99.90
11615;DHT22;5863;52.832;4.758;2023-01-31T13:35:02;11.10;99.90
11615;DHT22;5863;52.832;4.758;2023-01-31T13:37:35;11.10;99.90
11615;DHT22;5863;52.832;4.758;2023-01-31T13:40:13;11.10;99.90
11615;DHT22;5863;52.832;4.758;2023-01-31T13:42:42;11.00;99.90
11615;DHT22;5863;52.832;4.758;2023-01-31T13:45:21;10.90;99.90
11615;DHT22;5863;52.832;4.758;2023-01-31T13:47:51;10.90;99.90
11615;DHT22;5863;52.832;4.758;2023-01-31T13:50:30;10.90;99.90
11615;DHT22;5863;52.832;4.758;2023-01-31T13:53:01;10.90;99.90
11615;DHT22;5863;52.832;4.758;2023-01-31T13:55:33;10.80;99.90
11615;DHT22;5863;52.832;4.758;2023-01-31T13:58:04;10.80;99.90
11615;DHT22;5863;52.832;4.758;2023-01-31T14:00:37;10.80;99.90
11615;DHT22;5863;52.832;4.758;2023-01-31T14:03:07;10.70;99.90
11615;DHT22;5863;52.832;4.758;2023-01-31T14:05:56;10.70;99.90
11615;DHT22;5863;52.832;4.758;2023-01-31T14:08:57;10.70;99.90
11615;DHT22;5863;52.832;4.758;2023-01-31T14:11:34;10.60;99.90
11615;DHT22;5863;52.832;4.758;2023-01-31T14:14:20;10.60;99.90
11615;DHT22;5863;52.832;4.758;2023-01-31T14:16:48;10.60;99.90
11615;DHT22;5863;52.832;4.758;2023-01-31T14:22:30;10.60;99.90
11615;DHT22;5863;52.832;4.758;2023-01-31T14:25:02;10.60;99.90
11615;DHT22;5863;52.832;4.758;2023-01-31T14:30:27;10.50;99.90
11615;DHT22;5863;52.832;4.758;2023-01-31T14:33:20;10.50;99.90
11615;DHT22;5863;52.832;4.758;2023-01-31T14:39:03;10.40;99.90
11615;DHT22;5863;52.832;4.758;2023-01-31T14:41:51;10.40;99.90
11615;DHT22;5863;52.832;4.758;2023-01-31T14:44:27;10.40;99.90
11615;DHT22;5863;52.832;4.758;2023-01-31T14:47:12;10.30;99.90
11615;DHT22;5863;52.832;4.758;2023-01-31T14:49:58;10.30;99.90
11615;DHT22;5863;52.832;4.758;2023-01-31T14:52:51;10.30;99.90
11615;DHT22;5863;52.832;4.758;2023-01-31T14:55:32;10.20;99.90
11615;DHT22;5863;52.832;4.758;2023-01-31T14:58:05;10.20;99.90
11615;DHT22;5863;52.832;4.758;2023-01-31T15:00:35;10.20;99.90
11615;DHT22;5863;52.832;4.758;2023-01-31T15:03:04;10.20;99.90
11615;DHT22;5863;52.832;4.758;2023-01-31T15:05:42;10.20;99.90
11615;DHT22;5863;52.832;4.758;2023-01-31T15:08:36;10.20;99.90
11615;DHT22;5863;52.832;4.758;2023-01-31T15:11:04;10.20;99.90
11615;DHT22;5863;52.832;4.758;2023-01-31T15:13:44;10.10;99.90
11615;DHT22;5863;52.832;4.758;2023-01-31T15:16:19;10.10;99.90
11615;DHT22;5863;52.832;4.758;2023-01-31T15:18:48;10.00;99.90
11615;DHT22;5863;52.832;4.758;2023-01-31T15:21:21;10.00;99.90
11615;DHT22;5863;52.832;4.758;2023-01-31T15:23:49;9.90;99.90
11615;DHT22;5863;52.832;4.758;2023-01-31T15:26:18;9.90;99.90
11615;DHT22;5863;52.832;4.758;2023-01-31T15:28:46;9.90;99.90
11615;DHT22;5863;52.832;4.758;2023-01-31T15:31:17;9.80;99.90
11615;DHT22;5863;52.832;4.758;2023-01-31T15:33:50;9.80;99.90
11615;DHT22;5863;52.832;4.758;2023-01-31T15:36:23;9.80;99.90
11615;DHT22;5863;52.832;4.758;2023-01-31T15:38:53;9.70;99.90
11615;DHT22;5863;52.832;4.758;2023-01-31T15:41:23;9.70;99.90
11615;DHT22;5863;52.832;4.758;2023-01-31T15:43:53;9.70;99.90
11615;DHT22;5863;52.832;4.758;2023-01-31T15:46:23;9.60;99.90
11615;DHT22;5863;52.832;4.758;2023-01-31T15:48:51;9.50;99.90
11615;DHT22;5863;52.832;4.758;2023-01-31T15:51:19;9.50;99.90
11615;DHT22;5863;52.832;4.758;2023-01-31T15:53:46;9.40;99.90
11615;DHT22;5863;52.832;4.758;2023-01-31T15:56:19;9.40;99.90
11615;DHT22;5863;52.832;4.758;2023-01-31T15:58:49;9.40;99.90
11615;DHT22;5863;52.832;4.758;2023-01-31T16:01:18;9.40;99.90
11615;DHT22;5863;52.832;4.758;2023-01-31T16:03:50;9.30;99.90
11615;DHT22;5863;52.832;4.758;2023-01-31T16:06:22;9.20;99.90
11615;DHT22;5863;52.832;4.758;2023-01-31T16:08:54;9.20;99.90
11615;DHT22;5863;52.832;4.758;2023-01-31T16:11:21;9.10;99.90
11615;DHT22;5863;52.832;4.758;2023-01-31T16:13:48;9.10;99.90
11615;DHT22;5863;52.832;4.758;2023-01-31T16:16:15;9.10;99.90
11615;DHT22;5863;52.832;4.758;2023-01-31T16:18:48;9.00;99.90
11615;DHT22;5863;52.832;4.758;2023-01-31T16:21:24;9.00;99.90
11615;DHT22;5863;52.832;4.758;2023-01-31T16:24:02;9.00;99.90
11615;DHT22;5863;52.832;4.758;2023-01-31T16:26:31;8.90;99.90
11615;DHT22;5863;52.832;4.758;2023-01-31T16:29:05;8.90;99.90
11615;DHT22;5863;52.832;4.758;2023-01-31T16:31:33;8.90;99.90
11615;DHT22;5863;52.832;4.758;2023-01-31T16:34:05;8.80;99.90
11615;DHT22;5863;52.832;4.758;2023-01-31T16:36:52;8.80;99.90
11615;DHT22;5863;52.832;4.758;2023-01-31T16:39:31;8.80;99.90
11615;DHT22;5863;52.832;4.758;2023-01-31T16:41:59;8.70;99.90
11615;DHT22;5863;52.832;4.758;2023-01-31T16:44:30;8.70;99.90
11615;DHT22;5863;52.832;4.758;2023-01-31T16:46:59;8.70;99.90
11615;DHT22;5863;52.832;4.758;2023-01-31T16:49:29;8.70;99.90
11615;DHT22;5863;52.832;4.758;2023-01-31T16:51:57;8.70;99.90